Time;durP1;ratioP1;P1;durP2;ratioP2;P2;SDS_P1;SDS_P2;PMS_P1;PMS_P2;Temp;Humidity;BMP_temperature;BMP_pressure;BME280_temperature;BME280_humidity;BME280_pressure;Samples;Min_cycle;Max_cycle;Signal;HPM_P1;HPM_P2
2022/03/03 00:02:26;;;;;;;23.10;18.70;;;4.10;65.40;;;;;;5095108;28;20228;-55
2022/03/03 00:04:53;;;;;;;22.73;18.20;;;4.10;65.10;;;;;;5093604;28;20267;-55
2022/03/03 00:07:19;;;;;;;24.45;18.17;;;4.10;64.90;;;;;;5095041;28;20207;-56
2022/03/03 00:09:46;;;;;;;26.27;19.45;;;4.00;66.00;;;;;;5095309;28;20207;-55
2022/03/03 00:12:14;;;;;;;21.27;17.35;;;4.00;65.40;;;;;;5095097;28;20196;-55
2022/03/03 00:14:42;;;;;;;26.30;19.98;;;4.00;65.20;;;;;;5093607;28;20201;-56
2022/03/03 00:17:08;;;;;;;25.73;18.08;;;3.90;65.30;;;;;;5094775;28;20616;-56
2022/03/03 00:19:35;;;;;;;24.08;17.70;;;3.90;65.10;;;;;;5094934;28;20200;-56
2022/03/03 00:22:02;;;;;;;26.63;17.13;;;3.90;65.30;;;;;;5093536;28;20337;-55
2022/03/03 00:24:29;;;;;;;21.83;18.60;;;3.80;65.40;;;;;;5095002;28;20200;-55
2022/03/03 00:26:56;;;;;;;25.80;18.60;;;3.80;65.60;;;;;;5094912;28;20222;-55
2022/03/03 00:29:24;;;;;;;26.23;19.58;;;3.70;65.50;;;;;;5094648;28;20299;-56
2022/03/03 00:31:51;;;;;;;24.27;17.80;;;3.60;66.10;;;;;;5094637;28;20232;-56
2022/03/03 00:34:18;;;;;;;23.83;18.50;;;3.60;66.60;;;;;;5094767;28;20602;-56
2022/03/03 00:36:45;;;;;;;22.58;17.58;;;3.50;66.30;;;;;;5093421;28;20208;-56
2022/03/03 00:39:12;;;;;;;22.77;18.20;;;3.60;65.80;;;;;;5094657;28;20196;-56
2022/03/03 00:41:39;;;;;;;24.45;18.58;;;3.60;65.40;;;;;;5094530;28;20211;-55
2022/03/03 00:44:06;;;;;;;24.67;18.67;;;3.60;65.30;;;;;;5094346;28;20230;-56
2022/03/03 00:46:35;;;;;;;24.27;18.30;;;3.50;65.20;;;;;;5094489;28;20255;-57
2022/03/03 00:49:02;;;;;;;26.35;19.35;;;3.60;65.10;;;;;;5094472;28;20224;-56
2022/03/03 00:51:29;;;;;;;28.25;18.95;;;3.60;64.90;;;;;;5093163;28;20655;-56
2022/03/03 00:53:56;;;;;;;21.55;17.90;;;3.60;64.40;;;;;;5094359;28;20200;-56
2022/03/03 00:56:23;;;;;;;27.63;19.48;;;3.60;64.30;;;;;;5094422;28;20210;-56
2022/03/03 00:58:50;;;;;;;25.83;18.75;;;3.60;64.50;;;;;;5094026;28;20196;-56
2022/03/03 01:01:17;;;;;;;27.42;19.60;;;3.50;64.40;;;;;;5094345;28;20211;-56
2022/03/03 01:03:46;;;;;;;25.70;20.50;;;3.60;64.20;;;;;;5094052;28;20724;-55
2022/03/03 01:06:13;;;;;;;25.85;18.73;;;3.60;64.30;;;;;;5092664;28;20286;-55
2022/03/03 01:08:41;;;;;;;24.92;19.08;;;3.50;64.60;;;;;;5094016;28;20223;-56
2022/03/03 01:11:08;;;;;;;27.42;20.27;;;3.50;64.70;;;;;;5094048;28;20210;-56
2022/03/03 01:13:36;;;;;;;25.90;19.42;;;3.50;64.70;;;;;;5093763;28;20203;-56
2022/03/03 01:16:03;;;;;;;24.10;18.65;;;3.50;64.60;;;;;;5094096;28;20222;-56
2022/03/03 01:18:30;;;;;;;28.17;19.42;;;3.50;64.50;;;;;;5093940;28;20702;-56
2022/03/03 01:20:58;;;;;;;23.77;20.10;;;3.60;64.40;;;;;;5092407;28;20628;-56
2022/03/03 01:23:25;;;;;;;26.40;19.40;;;3.60;64.10;;;;;;5093749;28;20247;-56
2022/03/03 01:25:52;;;;;;;29.63;19.58;;;3.70;64.30;;;;;;5093384;28;20210;-56
2022/03/03 01:28:19;;;;;;;27.95;20.00;;;3.70;64.40;;;;;;5093457;28;20212;-56
2022/03/03 01:30:46;;;;;;;24.73;18.75;;;3.50;65.00;;;;;;5093280;28;20319;-55
2022/03/03 01:33:13;;;;;;;25.35;19.00;;;3.50;64.80;;;;;;5093592;28;20207;-56
2022/03/03 01:35:40;;;;;;;24.42;19.20;;;3.50;64.60;;;;;;5092235;28;20196;-56
2022/03/03 01:38:09;;;;;;;26.15;19.10;;;3.60;64.50;;;;;;5093585;28;20218;-56
2022/03/03 01:40:36;;;;;;;27.08;19.50;;;3.70;63.10;;;;;;5093250;28;20207;-56
2022/03/03 01:43:04;;;;;;;26.13;19.75;;;3.70;62.80;;;;;;5093322;28;20238;-56
2022/03/03 01:45:31;;;;;;;24.33;19.35;;;3.70;62.50;;;;;;5093252;28;20746;-56
2022/03/03 01:47:57;;;;;;;24.88;19.50;;;3.70;62.50;;;;;;5093249;28;20311;-56
2022/03/03 01:50:24;;;;;;;24.80;18.63;;;3.60;62.80;;;;;;5092108;28;20238;-56
2022/03/03 01:52:51;;;;;;;25.63;19.52;;;3.50;63.40;;;;;;5093276;28;20214;-56
2022/03/03 01:55:19;;;;;;;25.00;19.17;;;3.50;63.60;;;;;;5093055;28;20211;-56
2022/03/03 01:57:49;;;;;;;26.73;19.25;;;3.40;63.40;;;;;;5093208;28;20358;-56
2022/03/03 02:00:17;;;;;;;24.15;18.60;;;3.40;63.60;;;;;;5093042;28;20353;-56
2022/03/03 02:02:45;;;;;;;26.35;19.90;;;3.50;63.40;;;;;;5092868;28;20230;-56
2022/03/03 02:05:12;;;;;;;28.60;19.40;;;3.60;63.10;;;;;;5091665;28;20210;-56
2022/03/03 02:07:39;;;;;;;23.48;18.40;;;3.80;62.90;;;;;;5092858;28;20196;-56
2022/03/03 02:10:07;;;;;;;24.77;18.38;;;3.90;62.60;;;;;;5092932;28;20200;-56
2022/03/03 02:12:35;;;;;;;24.88;18.40;;;4.00;62.30;;;;;;5092899;28;20286;-56
2022/03/03 02:15:02;;;;;;;24.45;18.25;;;4.10;62.00;;;;;;5092665;28;20291;-56
2022/03/03 02:17:29;;;;;;;26.67;19.58;;;4.10;62.00;;;;;;5092931;28;20298;-56
2022/03/03 02:19:57;;;;;;;26.77;19.80;;;4.20;60.70;;;;;;5091761;28;20199;-56
2022/03/03 02:22:25;;;;;;;23.38;18.40;;;4.20;60.00;;;;;;5092649;28;20214;-55
2022/03/03 02:24:52;;;;;;;24.88;18.77;;;4.10;59.90;;;;;;5092733;28;20678;-56
2022/03/03 02:27:20;;;;;;;26.23;18.92;;;4.10;60.00;;;;;;5092753;28;20199;-56
2022/03/03 02:29:46;;;;;;;21.80;17.90;;;4.20;60.00;;;;;;5092399;28;20210;-56
2022/03/03 02:32:13;;;;;;;24.88;18.48;;;4.20;60.40;;;;;;5092816;28;20291;-56
2022/03/03 02:34:47;;;;;;;22.17;18.77;;;4.30;60.50;;;;;;5092578;28;20290;-56
2022/03/03 02:37:14;;;;;;;22.85;17.80;;;4.30;60.50;;;;;;5092109;28;20295;-56
2022/03/03 02:39:43;;;;;;;23.30;18.25;;;4.30;60.10;;;;;;5092058;28;20233;-55
2022/03/03 02:42:10;;;;;;;26.10;18.77;;;4.20;60.10;;;;;;5092816;28;20207;-56
2022/03/03 02:44:37;;;;;;;26.23;19.17;;;4.20;60.30;;;;;;5092654;28;20234;-56
2022/03/03 02:47:04;;;;;;;25.27;18.95;;;4.30;60.10;;;;;;5092833;28;20223;-56
2022/03/03 02:49:31;;;;;;;26.55;19.63;;;4.30;60.20;;;;;;5092590;28;20206;-56
2022/03/03 02:51:58;;;;;;;25.48;20.00;;;4.40;60.00;;;;;;5091523;28;20290;-55
2022/03/03 02:54:25;;;;;;;28.27;19.80;;;4.40;59.80;;;;;;5092858;28;20302;-54
2022/03/03 02:59:37;;;;;;;26.60;18.83;;;3.40;62.80;;;;;;5092531;28;20206;-56
2022/03/03 03:02:04;;;;;;;25.80;19.02;;;3.10;63.30;;;;;;5092543;28;20287;-56
2022/03/03 03:04:31;;;;;;;25.13;19.63;;;3.10;63.60;;;;;;5092522;28;20249;-56
2022/03/03 03:06:58;;;;;;;26.40;19.13;;;3.20;64.40;;;;;;5091389;28;20750;-56
2022/03/03 03:09:25;;;;;;;27.02;19.23;;;3.20;64.00;;;;;;5092614;28;20207;-56
2022/03/03 03:11:53;;;;;;;25.05;18.95;;;3.30;63.50;;;;;;5092663;28;20300;-55
2022/03/03 03:14:20;;;;;;;27.40;19.33;;;3.40;63.00;;;;;;5092378;28;20204;-56
2022/03/03 03:16:47;;;;;;;26.25;20.45;;;3.50;62.40;;;;;;5092515;28;20295;-56
2022/03/03 03:19:14;;;;;;;26.58;18.92;;;3.60;62.00;;;;;;5092535;28;20621;-56
2022/03/03 03:21:40;;;;;;;27.88;19.35;;;3.70;61.80;;;;;;5091249;28;20562;-56
2022/03/03 03:24:07;;;;;;;26.92;19.05;;;3.70;62.40;;;;;;5092353;28;20262;-55
2022/03/03 03:26:34;;;;;;;27.30;19.55;;;3.70;62.50;;;;;;5092381;28;20291;-56
2022/03/03 03:29:03;;;;;;;24.77;20.05;;;3.70;62.60;;;;;;5092246;28;20260;-56
2022/03/03 03:31:30;;;;;;;25.75;19.63;;;3.70;62.70;;;;;;5092378;28;20641;-56
2022/03/03 03:33:56;;;;;;;28.70;19.63;;;3.80;62.30;;;;;;5092415;28;20200;-56
2022/03/03 03:36:23;;;;;;;26.55;18.25;;;3.80;61.80;;;;;;5091180;28;20570;-56
2022/03/03 03:38:50;;;;;;;22.27;19.27;;;3.80;61.80;;;;;;5092407;28;20207;-56
2022/03/03 03:41:17;;;;;;;26.80;20.17;;;3.80;61.80;;;;;;5092384;28;20204;-56
2022/03/03 03:43:44;;;;;;;26.55;20.23;;;3.70;61.70;;;;;;5092093;28;20563;-56
2022/03/03 03:46:12;;;;;;;24.45;19.05;;;3.70;61.50;;;;;;5092008;28;20290;-56
2022/03/03 03:48:39;;;;;;;29.35;18.60;;;3.70;61.60;;;;;;5092284;28;20681;-55
2022/03/03 03:51:06;;;;;;;24.48;18.10;;;3.70;62.00;;;;;;5094732;28;20214;-55
2022/03/03 03:53:32;;;;;;;27.10;19.63;;;3.50;63.00;;;;;;5095908;28;20302;-56
2022/03/03 03:56:00;;;;;;;29.60;19.75;;;3.10;63.80;;;;;;5095788;28;20238;-56
2022/03/03 03:58:27;;;;;;;23.15;18.92;;;2.90;64.60;;;;;;5095671;28;20204;-56
2022/03/03 04:00:53;;;;;;;26.45;18.05;;;2.60;66.30;;;;;;5095472;28;20674;-56
2022/03/03 04:03:22;;;;;;;28.17;19.63;;;2.20;67.90;;;;;;5095438;28;20276;-56
2022/03/03 04:05:49;;;;;;;32.72;21.20;;;1.80;69.30;;;;;;5094435;28;20288;-56
2022/03/03 04:08:16;;;;;;;26.75;18.90;;;1.50;70.40;;;;;;5095574;28;20291;-56
2022/03/03 04:10:42;;;;;;;29.52;20.35;;;1.30;71.50;;;;;;5095398;28;20208;-56
2022/03/03 04:13:09;;;;;;;26.45;20.80;;;1.10;72.30;;;;;;5095484;28;20235;-56
2022/03/03 04:15:36;;;;;;;30.75;19.35;;;1.10;72.90;;;;;;5095382;28;20206;-56
2022/03/03 04:18:03;;;;;;;29.55;19.33;;;1.00;73.10;;;;;;5095360;28;20726;-55
2022/03/03 04:20:31;;;;;;;26.17;20.27;;;0.80;73.70;;;;;;5094093;28;20207;-56
2022/03/03 04:22:58;;;;;;;27.63;20.08;;;0.60;74.10;;;;;;5095178;28;20200;-55
2022/03/03 04:25:25;;;;;;;26.27;20.88;;;0.50;74.50;;;;;;5095078;28;20231;-55
2022/03/03 04:27:52;;;;;;;28.38;21.17;;;0.40;74.90;;;;;;5095189;28;20195;-58
2022/03/03 04:30:19;;;;;;;27.00;20.77;;;0.20;75.30;;;;;;5094976;28;20235;-58
2022/03/03 04:32:46;;;;;;;28.30;21.55;;;0.10;75.90;;;;;;5095097;28;20232;-58
2022/03/03 04:35:13;;;;;;;28.02;21.58;;;0.00;76.30;;;;;;5093732;28;20208;-56
2022/03/03 04:37:41;;;;;;;26.20;20.70;;;0.00;76.30;;;;;;5094991;28;20211;-56
2022/03/03 04:40:09;;;;;;;25.02;18.67;;;0.10;76.40;;;;;;5094841;28;20246;-56
2022/03/03 04:42:36;;;;;;;28.13;20.52;;;0.00;76.50;;;;;;5094901;28;20206;-56
2022/03/03 04:45:04;;;;;;;29.77;21.75;;;0.00;76.60;;;;;;5094618;28;20238;-56
2022/03/03 04:47:34;;;;;;;27.65;20.55;;;0.00;76.40;;;;;;5094692;28;20306;-58
2022/03/03 04:50:01;;;;;;;30.58;20.38;;;0.00;76.50;;;;;;5093569;28;20246;-56
2022/03/03 04:52:28;;;;;;;25.33;20.50;;;0.00;76.40;;;;;;5094631;28;20204;-56
2022/03/03 04:54:56;;;;;;;29.45;19.90;;;0.10;76.10;;;;;;5094643;28;20255;-57
2022/03/03 04:57:23;;;;;;;30.42;21.73;;;0.10;76.00;;;;;;5094575;28;20200;-56
2022/03/03 04:59:49;;;;;;;28.20;20.45;;;0.10;75.90;;;;;;5094366;28;20299;-56
2022/03/03 05:02:16;;;;;;;35.55;22.42;;;0.10;75.80;;;;;;5093908;28;20210;-56
2022/03/03 05:04:43;;;;;;;25.58;19.42;;;0.20;75.40;;;;;;5094255;28;20250;-56
2022/03/03 05:07:13;;;;;;;32.63;20.77;;;0.40;74.90;;;;;;5093321;28;20237;-56
2022/03/03 05:09:39;;;;;;;27.88;21.27;;;0.40;74.70;;;;;;5093935;28;20676;-57
2022/03/03 05:12:09;;;;;;;27.63;19.73;;;0.50;74.50;;;;;;5094271;28;20200;-57
2022/03/03 05:14:36;;;;;;;27.27;20.13;;;0.70;73.80;;;;;;5094228;28;20215;-57
2022/03/03 05:17:03;;;;;;;27.92;21.38;;;0.90;73.00;;;;;;5094248;28;20208;-56
2022/03/03 05:19:30;;;;;;;29.35;19.23;;;1.00;72.70;;;;;;5094243;28;20208;-57
2022/03/03 05:21:56;;;;;;;24.17;20.15;;;1.10;72.50;;;;;;5092708;28;20357;-57
2022/03/03 05:24:23;;;;;;;24.70;20.05;;;1.10;72.30;;;;;;5093960;28;20227;-57
2022/03/03 05:26:51;;;;;;;30.08;21.67;;;1.20;72.10;;;;;;5094081;28;20200;-56
2022/03/03 05:29:19;;;;;;;28.73;21.55;;;1.20;72.10;;;;;;5093847;28;20261;-57
2022/03/03 05:31:46;;;;;;;32.63;21.80;;;1.30;72.00;;;;;;5094302;28;20203;-58
2022/03/03 05:34:14;;;;;;;29.88;21.70;;;1.20;72.20;;;;;;5094645;28;20255;-58
2022/03/03 05:36:42;;;;;;;31.95;21.48;;;1.10;72.40;;;;;;5092987;28;20622;-56
2022/03/03 05:39:10;;;;;;;29.00;21.00;;;1.00;72.80;;;;;;5094287;28;20200;-57
2022/03/03 05:41:37;;;;;;;28.95;20.60;;;0.90;73.10;;;;;;5094178;28;20257;-59
2022/03/03 05:44:05;;;;;;;28.98;21.33;;;0.90;73.40;;;;;;5093871;28;20277;-57
2022/03/03 05:46:33;;;;;;;28.70;21.63;;;0.80;73.60;;;;;;5093358;28;20220;-56
2022/03/03 05:49:00;;;;;;;31.55;20.05;;;0.90;73.70;;;;;;5093560;28;20204;-57
2022/03/03 05:51:27;;;;;;;29.35;20.08;;;0.80;73.70;;;;;;5092303;28;20204;-57
2022/03/03 05:53:54;;;;;;;28.52;20.83;;;0.80;73.70;;;;;;5093522;28;20254;-56
2022/03/03 05:56:23;;;;;;;34.55;23.13;;;0.80;73.60;;;;;;5093377;28;20279;-56
2022/03/03 05:58:51;;;;;;;29.92;20.33;;;0.80;73.40;;;;;;5093338;28;20207;-56
2022/03/03 06:01:19;;;;;;;26.73;20.30;;;0.90;73.10;;;;;;5093111;28;20210;-56
2022/03/03 06:03:50;;;;;;;30.15;21.77;;;1.00;72.70;;;;;;5093165;28;20319;-56
2022/03/03 06:06:18;;;;;;;26.52;19.67;;;1.00;72.60;;;;;;5091788;28;20230;-56
2022/03/03 06:08:57;;;;;;;26.25;20.35;;;1.10;72.10;;;;;;5093281;28;20286;-57
2022/03/03 06:11:27;;;;;;;25.58;19.15;;;1.20;71.70;;;;;;5093234;28;20591;-56
2022/03/03 06:13:58;;;;;;;26.17;19.85;;;1.30;71.20;;;;;;5092199;28;20236;-56
2022/03/03 06:16:26;;;;;;;26.63;19.20;;;1.40;70.80;;;;;;5093009;28;20199;-56
2022/03/03 06:18:54;;;;;;;24.73;18.02;;;1.40;70.40;;;;;;5093094;28;20747;-56
2022/03/03 06:21:21;;;;;;;30.00;20.55;;;1.60;70.20;;;;;;5091729;28;20286;-58
2022/03/03 06:23:48;;;;;;;29.85;19.58;;;1.70;69.80;;;;;;5092861;28;20196;-56
2022/03/03 06:26:17;;;;;;;30.05;21.00;;;1.80;69.70;;;;;;5092908;28;20200;-57
2022/03/03 06:28:45;;;;;;;27.40;18.33;;;1.80;69.40;;;;;;5092875;28;20704;-57
2022/03/03 06:31:12;;;;;;;29.33;20.95;;;1.80;69.10;;;;;;5092755;28;20290;-57
2022/03/03 06:33:40;;;;;;;30.48;19.60;;;1.80;69.10;;;;;;5092880;28;20204;-56
2022/03/03 06:36:09;;;;;;;33.67;20.23;;;1.90;68.90;;;;;;5091580;28;20614;-56
2022/03/03 06:38:36;;;;;;;24.98;19.98;;;1.90;68.60;;;;;;5092861;28;20207;-57
2022/03/03 06:41:05;;;;;;;27.50;21.08;;;2.00;68.40;;;;;;5092600;28;20639;-56
2022/03/03 06:43:32;;;;;;;28.77;17.95;;;2.10;68.00;;;;;;5092878;28;20254;-56
2022/03/03 06:46:00;;;;;;;26.80;18.83;;;2.10;67.80;;;;;;5092498;28;20238;-56
2022/03/03 06:48:27;;;;;;;22.40;18.70;;;2.20;67.60;;;;;;5092803;28;20206;-56
2022/03/03 06:50:56;;;;;;;27.90;19.50;;;2.30;67.40;;;;;;5091501;28;20204;-57
2022/03/03 06:53:28;;;;;;;30.38;20.80;;;2.40;67.30;;;;;;5092667;28;20242;-56
2022/03/03 06:56:02;;;;;;;28.27;20.73;;;2.50;67.00;;;;;;5092604;28;20720;-57
2022/03/03 06:58:31;;;;;;;28.35;18.45;;;2.50;66.80;;;;;;5092900;28;20291;-57
2022/03/03 07:00:58;;;;;;;29.92;20.83;;;2.50;66.70;;;;;;5092396;28;20208;-58
2022/03/03 07:03:26;;;;;;;30.27;19.90;;;2.50;66.90;;;;;;5092408;28;20258;-56
2022/03/03 07:05:53;;;;;;;29.75;19.83;;;2.60;67.00;;;;;;5091116;28;20741;-57
2022/03/03 07:08:21;;;;;;;26.63;17.92;;;2.50;67.20;;;;;;5092537;28;20290;-57
2022/03/03 07:10:49;;;;;;;32.45;21.35;;;2.50;67.40;;;;;;5092528;28;20247;-57
2022/03/03 07:13:17;;;;;;;29.20;19.60;;;2.50;67.70;;;;;;5092558;28;20240;-56
2022/03/03 07:15:50;;;;;;;29.08;21.05;;;2.40;68.00;;;;;;5092313;28;20200;-56
2022/03/03 07:18:20;;;;;;;29.27;20.38;;;2.30;68.20;;;;;;5092454;28;20197;-56
2022/03/03 07:20:58;;;;;;;26.98;19.73;;;2.30;68.30;;;;;;5090992;28;20207;-56
2022/03/03 07:23:35;;;;;;;29.65;19.73;;;2.30;68.60;;;;;;5092313;28;20566;-57
2022/03/03 07:26:06;;;;;;;28.98;19.65;;;2.40;68.50;;;;;;5096049;28;20318;-56
2022/03/03 07:28:34;;;;;;;28.52;18.75;;;2.50;68.60;;;;;;5096224;28;20295;-56
2022/03/03 07:31:03;;;;;;;28.88;21.92;;;2.70;68.60;;;;;;5095806;28;20204;-56
2022/03/03 07:33:41;;;;;;;29.10;19.88;;;2.90;68.10;;;;;;5096372;28;20286;-56
2022/03/03 07:36:10;;;;;;;26.33;19.17;;;2.80;68.00;;;;;;5094756;28;20362;-57
2022/03/03 07:38:38;;;;;;;32.63;21.08;;;2.80;68.00;;;;;;5095972;28;20200;-56
2022/03/03 07:41:08;;;;;;;32.15;22.55;;;2.70;67.90;;;;;;5096044;28;20243;-56
2022/03/03 07:43:35;;;;;;;34.25;23.85;;;2.80;67.90;;;;;;5095917;28;20196;-57
2022/03/03 07:46:03;;;;;;;31.73;20.95;;;2.90;67.50;;;;;;5095597;28;20239;-56
2022/03/03 07:48:32;;;;;;;30.02;22.25;;;3.00;67.10;;;;;;5096082;28;20291;-56
2022/03/03 07:51:01;;;;;;;29.70;21.55;;;3.20;67.60;;;;;;5094580;28;20231;-57
2022/03/03 07:53:28;;;;;;;33.75;22.58;;;3.40;67.40;;;;;;5089594;28;20200;-55
2022/03/03 07:56:01;;;;;;;25.80;20.30;;;3.50;67.00;;;;;;5079032;28;20279;-57
2022/03/03 07:58:33;;;;;;;31.58;21.23;;;3.30;66.90;;;;;;5074711;28;20201;-56
2022/03/03 08:01:03;;;;;;;33.03;23.33;;;3.20;67.20;;;;;;5090171;28;20204;-56
2022/03/03 08:03:31;;;;;;;27.02;21.23;;;3.10;67.80;;;;;;5094785;28;20289;-55
2022/03/03 08:05:58;;;;;;;29.15;22.25;;;2.90;68.50;;;;;;5093377;28;20286;-56
2022/03/03 08:08:27;;;;;;;33.25;23.08;;;3.00;68.90;;;;;;5094760;28;20200;-56
2022/03/03 08:10:59;;;;;;;31.40;22.10;;;3.30;68.60;;;;;;5094722;28;20204;-56
2022/03/03 08:13:29;;;;;;;29.63;22.50;;;3.60;67.80;;;;;;5094581;28;20200;-56
2022/03/03 08:15:57;;;;;;;32.28;23.48;;;3.80;66.70;;;;;;5094475;28;20214;-56
2022/03/03 08:18:27;;;;;;;29.30;22.83;;;4.00;66.90;;;;;;5094706;28;20204;-57
2022/03/03 08:20:56;;;;;;;27.50;21.25;;;4.10;66.80;;;;;;5093416;28;20211;-57
2022/03/03 08:23:25;;;;;;;35.58;23.83;;;4.30;66.50;;;;;;5094482;28;20196;-56
2022/03/03 08:25:55;;;;;;;31.52;22.10;;;4.40;66.10;;;;;;5094283;28;20231;-57
2022/03/03 08:28:23;;;;;;;33.10;22.48;;;4.30;64.00;;;;;;5094455;28;20215;-56
2022/03/03 08:30:56;;;;;;;28.35;22.02;;;4.40;64.90;;;;;;5094199;28;20285;-57
2022/03/03 08:33:36;;;;;;;32.63;23.10;;;4.50;65.50;;;;;;5094356;28;20294;-56
2022/03/03 08:36:05;;;;;;;31.27;22.10;;;4.70;65.40;;;;;;5091960;28;20210;-57
2022/03/03 08:38:36;;;;;;;27.35;21.58;;;4.80;65.10;;;;;;5094238;28;20554;-57
2022/03/03 08:41:05;;;;;;;31.02;21.45;;;5.00;64.60;;;;;;5094037;28;20546;-56
2022/03/03 08:43:33;;;;;;;29.08;20.55;;;5.10;64.20;;;;;;5094435;28;20287;-57
2022/03/03 08:46:05;;;;;;;30.50;19.95;;;5.20;63.50;;;;;;5093911;28;20594;-57
2022/03/03 08:48:33;;;;;;;31.08;21.17;;;5.30;63.30;;;;;;5093948;28;20371;-57
2022/03/03 08:51:01;;;;;;;30.17;23.35;;;5.40;63.40;;;;;;5092652;28;20196;-56
2022/03/03 08:53:28;;;;;;;31.02;23.45;;;5.40;63.20;;;;;;5093747;28;20253;-56
2022/03/03 08:55:58;;;;;;;31.17;22.88;;;5.40;62.90;;;;;;5094013;28;20211;-56
2022/03/03 08:58:25;;;;;;;29.23;21.95;;;5.30;63.70;;;;;;5093840;28;20287;-56
2022/03/03 09:00:52;;;;;;;31.98;22.23;;;5.40;63.80;;;;;;5093481;28;20231;-56
2022/03/03 09:03:22;;;;;;;34.60;24.80;;;5.50;63.50;;;;;;5093404;28;20224;-56
2022/03/03 09:05:49;;;;;;;31.33;24.23;;;5.50;63.10;;;;;;5092339;28;20235;-56
2022/03/03 09:08:16;;;;;;;33.05;23.80;;;5.50;62.60;;;;;;5093657;28;20204;-57
2022/03/03 09:10:43;;;;;;;33.92;25.02;;;5.50;62.70;;;;;;5093797;28;20315;-56
2022/03/03 09:13:10;;;;;;;38.58;25.55;;;5.40;63.10;;;;;;5094124;28;20231;-56
2022/03/03 09:15:37;;;;;;;36.63;23.65;;;5.30;63.70;;;;;;5093976;28;20200;-57
2022/03/03 09:18:05;;;;;;;33.60;25.13;;;5.20;63.70;;;;;;5094060;28;20208;-57
2022/03/03 09:20:34;;;;;;;37.72;25.13;;;5.30;63.90;;;;;;5092840;28;20204;-56
2022/03/03 09:23:02;;;;;;;32.85;25.10;;;5.30;63.70;;;;;;5093924;28;20204;-56
2022/03/03 09:25:29;;;;;;;33.65;25.20;;;5.40;63.60;;;;;;5094063;28;20250;-56
2022/03/03 09:27:56;;;;;;;31.52;25.77;;;5.50;63.50;;;;;;5093933;28;20296;-56
2022/03/03 09:30:23;;;;;;;34.05;25.63;;;5.50;63.50;;;;;;5093906;28;20230;-56
2022/03/03 09:32:50;;;;;;;35.10;25.52;;;5.50;63.40;;;;;;5093974;28;20203;-56
2022/03/03 09:35:17;;;;;;;30.33;24.90;;;5.60;63.10;;;;;;5092591;28;20208;-57
2022/03/03 09:37:46;;;;;;;35.70;26.73;;;5.60;63.20;;;;;;5093857;28;20658;-57
2022/03/03 09:40:12;;;;;;;30.35;25.13;;;5.70;63.10;;;;;;5093871;28;20204;-56
2022/03/03 09:42:40;;;;;;;32.10;25.20;;;5.80;62.80;;;;;;5093725;28;20200;-57
2022/03/03 09:45:08;;;;;;;32.55;25.42;;;5.80;62.30;;;;;;5093441;28;20228;-56
2022/03/03 09:47:37;;;;;;;37.92;26.45;;;5.90;62.30;;;;;;5093572;28;20227;-56
2022/03/03 09:50:05;;;;;;;34.38;27.63;;;5.90;62.00;;;;;;5092295;28;20204;-56
2022/03/03 09:52:32;;;;;;;31.80;25.63;;;6.00;62.10;;;;;;5093606;28;20204;-56
2022/03/03 09:55:01;;;;;;;34.40;26.15;;;6.00;62.10;;;;;;5093472;28;20211;-57
2022/03/03 09:57:28;;;;;;;36.45;26.10;;;6.20;61.80;;;;;;5093476;28;20654;-57
2022/03/03 09:59:56;;;;;;;33.72;24.88;;;6.20;61.00;;;;;;5093393;28;20308;-56
2022/03/03 10:02:24;;;;;;;31.98;24.30;;;6.30;61.80;;;;;;5093196;28;20662;-56
2022/03/03 10:04:56;;;;;;;34.60;24.75;;;6.40;61.60;;;;;;5092381;28;20267;-56
2022/03/03 10:07:24;;;;;;;33.67;25.75;;;6.50;61.40;;;;;;5093222;28;20667;-57
2022/03/03 10:10:11;;;;;;;32.58;24.67;;;6.60;61.40;;;;;;5093102;28;20694;-56
2022/03/03 10:12:45;;;;;;;29.00;24.08;;;6.70;60.70;;;;;;5093205;28;20203;-56
2022/03/03 10:15:16;;;;;;;32.20;24.55;;;6.80;60.50;;;;;;5093025;28;20822;-56
2022/03/03 10:17:43;;;;;;;35.00;25.45;;;7.00;60.60;;;;;;5093193;28;20197;-56
2022/03/03 10:20:11;;;;;;;31.30;23.15;;;7.10;58.90;;;;;;5091700;28;20207;-56
2022/03/03 10:22:40;;;;;;;33.92;25.80;;;7.10;59.50;;;;;;5093316;28;20204;-56
2022/03/03 10:25:08;;;;;;;37.63;25.95;;;7.20;59.10;;;;;;5093057;28;20196;-56
2022/03/03 10:27:35;;;;;;;29.73;22.73;;;7.40;59.50;;;;;;5092935;28;20294;-56
2022/03/03 10:30:06;;;;;;;35.58;26.92;;;7.40;59.20;;;;;;5092908;28;20677;-56
2022/03/03 10:32:35;;;;;;;33.92;26.67;;;7.50;57.80;;;;;;5092780;28;20196;-56
2022/03/03 10:35:12;;;;;;;38.05;26.13;;;7.60;57.80;;;;;;5091701;28;20212;-56
2022/03/03 10:37:39;;;;;;;37.15;26.50;;;7.70;57.30;;;;;;5092943;28;20206;-56
2022/03/03 10:40:11;;;;;;;31.27;25.02;;;7.80;56.70;;;;;;5092780;28;20200;-56
2022/03/03 10:42:42;;;;;;;32.15;24.88;;;8.00;57.90;;;;;;5092936;28;20208;-56
2022/03/03 10:45:15;;;;;;;29.77;24.05;;;8.10;57.00;;;;;;5092610;28;20203;-56
2022/03/03 10:47:45;;;;;;;32.42;26.05;;;8.30;57.30;;;;;;5092713;28;20651;-56
2022/03/03 10:50:12;;;;;;;34.97;23.00;;;8.40;57.40;;;;;;5091459;28;20218;-56
2022/03/03 10:52:40;;;;;;;32.80;25.15;;;8.50;56.90;;;;;;5092725;28;20303;-56
2022/03/03 10:55:13;;;;;;;29.58;23.02;;;8.70;55.70;;;;;;5092680;28;20200;-56
2022/03/03 10:57:41;;;;;;;29.30;24.77;;;8.80;56.20;;;;;;5092593;28;20737;-56
2022/03/03 11:00:15;;;;;;;29.08;25.15;;;8.90;54.70;;;;;;5095170;28;20207;-56
2022/03/03 11:02:44;;;;;;;32.45;23.60;;;9.00;55.10;;;;;;5096646;28;20286;-56
2022/03/03 11:05:12;;;;;;;29.40;24.30;;;9.00;54.10;;;;;;5095352;28;20633;-56
2022/03/03 11:07:42;;;;;;;29.52;23.60;;;9.10;54.70;;;;;;5096710;28;20290;-56
2022/03/03 11:10:10;;;;;;;27.10;21.33;;;9.20;54.40;;;;;;5096519;28;20259;-56
2022/03/03 11:12:38;;;;;;;30.60;24.45;;;9.40;53.40;;;;;;5096607;28;20292;-56
2022/03/03 11:15:05;;;;;;;32.53;23.85;;;9.50;52.80;;;;;;5096741;28;20292;-56
2022/03/03 11:17:34;;;;;;;33.72;25.75;;;9.60;52.80;;;;;;5096375;28;20282;-55
2022/03/03 11:20:01;;;;;;;32.22;23.77;;;9.70;50.80;;;;;;5095492;28;20218;-56
2022/03/03 11:22:30;;;;;;;29.20;23.70;;;9.70;52.10;;;;;;5096471;28;20761;-56
2022/03/03 11:24:58;;;;;;;28.45;23.35;;;9.90;51.60;;;;;;5096317;28;20199;-56
2022/03/03 11:27:36;;;;;;;28.15;22.08;;;10.70;51.50;;;;;;5096281;28;20228;-59
2022/03/03 11:30:26;;;;;;;27.92;22.17;;;12.60;48.10;;;;;;5096283;28;20211;-58
2022/03/03 11:33:26;;;;;;;28.58;22.17;;;15.20;42.60;;;;;;5096270;28;20204;-59
2022/03/03 11:35:56;;;;;;;29.05;23.30;;;17.80;39.90;;;;;;5094996;28;20218;-59
2022/03/03 11:38:25;;;;;;;27.97;21.80;;;19.80;35.00;;;;;;5096178;28;20211;-59
2022/03/03 11:40:55;;;;;;;27.77;24.87;;;20.90;26.70;;;;;;5096136;28;20871;-59
2022/03/03 11:43:23;;;;;;;29.70;24.50;;;20.90;32.40;;;;;;5096077;28;20473;-56
2022/03/03 11:45:51;;;;;;;29.23;24.00;;;22.00;29.90;;;;;;5095789;28;20564;-56
2022/03/03 11:48:19;;;;;;;25.77;22.67;;;23.20;32.00;;;;;;5095870;28;20450;-56
2022/03/03 11:50:48;;;;;;;29.43;24.67;;;24.40;28.10;;;;;;5094719;28;20510;-57
2022/03/03 11:53:31;;;;;;;28.20;24.50;;;25.30;27.70;;;;;;5095716;28;20806;-57
2022/03/03 11:56:01;;;;;;;28.47;25.03;;;26.10;28.60;;;;;;5095421;28;20936;-57
2022/03/03 11:58:31;;;;;;;28.83;25.73;;;26.80;26.50;;;;;;5095614;28;20475;-57
2022/03/03 12:01:09;;;;;;;29.57;26.20;;;27.30;25.60;;;;;;5095543;28;20507;-57
2022/03/03 12:04:02;;;;;;;27.80;25.00;;;27.60;23.00;;;;;;5095512;28;20497;-57
2022/03/03 12:06:41;;;;;;;26.30;23.50;;;27.20;22.40;;;;;;5085840;28;20504;-57
2022/03/03 12:09:24;;;;;;;28.13;25.17;;;26.40;23.70;;;;;;5095517;28;20980;-57
2022/03/03 12:12:07;;;;;;;26.37;23.57;;;25.50;23.00;;;;;;5095396;28;20450;-56
2022/03/03 12:14:35;;;;;;;25.67;22.87;;;23.80;24.00;;;;;;5095406;28;20537;-57
2022/03/03 12:17:42;;;;;;;26.97;24.17;;;23.20;24.20;;;;;;5095066;28;20959;-59
2022/03/03 12:20:30;;;;;;;29.03;24.60;;;22.50;26.00;;;;;;5094100;28;20941;-59
2022/03/03 12:23:08;;;;;;;25.90;23.10;;;20.80;27.10;;;;;;5095234;28;20438;-59
2022/03/03 12:25:59;;;;;;;26.57;23.47;;;20.30;27.90;;;;;;5095274;28;20793;-59
2022/03/03 12:28:34;;;;;;;29.80;24.97;;;19.80;27.30;;;;;;5095308;28;20452;-59
2022/03/03 12:31:01;;;;;;;28.90;23.47;;;19.30;28.70;;;;;;5094939;28;20449;-58
2022/03/03 12:33:30;;;;;;;25.20;22.53;;;18.70;29.40;;;;;;5094865;28;20526;-58
2022/03/03 12:36:00;;;;;;;29.40;23.63;;;18.20;29.70;;;;;;5093947;28;20456;-59
2022/03/03 12:38:29;;;;;;;24.80;21.00;;;17.70;30.80;;;;;;5095002;28;20445;-59
2022/03/03 12:40:56;;;;;;;26.70;23.37;;;17.50;31.50;;;;;;5094970;28;20525;-59
2022/03/03 12:43:23;;;;;;;26.57;23.77;;;17.30;31.30;;;;;;5094961;28;20446;-57
2022/03/03 12:45:50;;;;;;;28.23;23.50;;;17.30;31.50;;;;;;5094682;28;20600;-59
2022/03/03 12:48:28;;;;;;;26.33;22.37;;;17.60;31.80;;;;;;5075145;28;20546;-59